createdAt,value
2018-09-11T00:01:32.869Z,2.80
2018-09-11T00:03:35.757Z,3.00
2018-09-11T00:05:38.645Z,2.77
2018-09-11T00:07:43.071Z,3.17
2018-09-11T00:09:45.933Z,3.30
2018-09-11T00:11:49.020Z,3.40
2018-09-11T00:13:51.905Z,3.43
2018-09-11T00:15:54.780Z,3.30
2018-09-11T00:17:57.815Z,3.50
2018-09-11T00:20:00.758Z,3.23
2018-09-11T00:22:03.641Z,3.47
2018-09-11T00:24:06.541Z,3.57
2018-09-11T00:26:10.206Z,3.30
2018-09-11T00:28:13.104Z,3.83
2018-09-11T00:30:16.018Z,3.50
2018-09-11T00:32:18.900Z,4.30
2018-09-11T00:34:21.790Z,3.50
2018-09-11T00:36:24.696Z,3.60
2018-09-11T00:38:27.569Z,3.13
2018-09-11T00:40:30.453Z,3.70
2018-09-11T00:42:33.473Z,3.67
2018-09-11T00:44:36.360Z,3.97
2018-09-11T00:46:39.224Z,2.87
2018-09-11T00:48:42.121Z,4.10
2018-09-11T00:50:45.773Z,3.03
2018-09-11T00:52:48.644Z,2.70
2018-09-11T00:54:51.565Z,3.27
2018-09-11T00:56:54.495Z,3.50
2018-09-11T00:58:58.125Z,3.27
2018-09-11T01:01:01.173Z,3.78
2018-09-11T01:03:04.133Z,3.30
2018-09-11T01:05:07.835Z,2.90
2018-09-11T01:07:11.578Z,2.70
2018-09-11T01:09:14.508Z,3.43
2018-09-11T01:11:17.437Z,3.10
2018-09-11T01:13:20.422Z,3.00
2018-09-11T01:15:23.395Z,3.13
2018-09-11T01:17:26.337Z,3.77
2018-09-11T01:19:29.322Z,3.80
2018-09-11T01:21:33.774Z,3.10
2018-09-11T01:23:37.491Z,3.40
2018-09-11T01:25:40.574Z,3.50
2018-09-11T01:27:43.493Z,3.77
2018-09-11T01:29:46.526Z,3.87
2018-09-11T01:31:50.238Z,3.20
2018-09-11T01:33:53.169Z,3.17
2018-09-11T01:35:56.111Z,3.27
2018-09-11T01:37:59.149Z,2.97
2018-09-11T01:40:02.175Z,3.00
2018-09-11T01:42:05.085Z,3.57
2018-09-11T01:44:08.055Z,3.13
2018-09-11T01:46:10.974Z,3.90
2018-09-11T01:48:13.985Z,3.60
2018-09-11T01:50:17.073Z,3.33
2018-09-11T01:52:20.869Z,3.10
2018-09-11T01:54:24.572Z,3.17
2018-09-11T01:56:28.294Z,3.10
2018-09-11T01:58:31.218Z,4.00
2018-09-11T02:00:34.955Z,3.73
2018-09-11T02:02:38.681Z,4.13
2018-09-11T02:04:41.610Z,3.60
2018-09-11T02:06:44.534Z,3.87
2018-09-11T02:08:47.497Z,2.70
2018-09-11T02:10:51.179Z,3.50
2018-09-11T02:12:54.128Z,3.40
2018-09-11T02:14:57.125Z,3.80
2018-09-11T02:17:00.149Z,3.40
2018-09-11T02:19:03.826Z,3.23
2018-09-11T02:21:06.864Z,3.65
2018-09-11T02:23:09.793Z,3.10
2018-09-11T02:25:12.723Z,3.17
2018-09-11T02:27:15.780Z,3.10
2018-09-11T02:29:19.481Z,3.80
2018-09-11T02:31:23.159Z,3.50
2018-09-11T02:33:26.983Z,3.43
2018-09-11T02:35:30.682Z,3.30
2018-09-11T02:37:34.486Z,2.90
2018-09-11T02:39:38.211Z,4.27
2018-09-11T02:41:41.158Z,2.80
2018-09-11T02:43:44.849Z,2.90
2018-09-11T02:45:49.313Z,3.60
2018-09-11T02:47:52.243Z,3.27
2018-09-11T02:49:56.693Z,3.70
2018-09-11T02:52:00.498Z,3.30
2018-09-11T02:54:04.190Z,3.33
2018-09-11T02:56:08.546Z,3.17
2018-09-11T02:58:11.610Z,3.37
2018-09-11T03:00:14.570Z,3.70
2018-09-11T03:02:18.254Z,3.00
2018-09-11T03:04:22.816Z,3.20
2018-09-11T03:06:25.875Z,3.80
2018-09-11T03:08:29.570Z,3.90
2018-09-11T03:10:33.285Z,3.10
2018-09-11T03:12:36.239Z,3.43
2018-09-11T03:14:39.929Z,3.43
2018-09-11T03:16:42.986Z,3.10
2018-09-11T03:18:45.951Z,3.10
2018-09-11T03:20:48.862Z,3.70
2018-09-11T03:22:51.904Z,3.67
2018-09-11T03:24:54.797Z,3.30
2018-09-11T03:26:57.719Z,4.00
2018-09-11T03:29:00.849Z,3.87
2018-09-11T03:31:03.789Z,3.37
2018-09-11T03:33:06.904Z,4.28
2018-09-11T03:35:10.625Z,4.23
2018-09-11T03:37:13.558Z,3.63
2018-09-11T03:39:16.502Z,4.37
2018-09-11T03:41:19.563Z,3.70
2018-09-11T03:43:22.638Z,3.60
2018-09-11T03:45:26.361Z,3.70
2018-09-11T03:47:29.425Z,3.90
2018-09-11T03:49:33.124Z,4.30
2018-09-11T03:51:36.849Z,3.80
2018-09-11T03:53:39.807Z,4.10
2018-09-11T03:55:58.561Z,3.93
2018-09-11T03:58:34.427Z,4.00
2018-09-11T04:03:03.850Z,4.40
2018-09-11T04:05:06.773Z,4.30
2018-09-11T04:07:09.699Z,3.90
2018-09-11T04:09:12.985Z,4.10
2018-09-11T04:11:16.713Z,3.93
2018-09-11T04:13:19.637Z,4.50
2018-09-11T04:15:22.594Z,4.47
2018-09-11T04:17:25.567Z,4.10
2018-09-11T04:19:28.489Z,4.23
2018-09-11T04:21:31.548Z,4.03
2018-09-11T04:23:34.581Z,3.87
2018-09-11T04:25:38.273Z,3.70
2018-09-11T04:27:42.083Z,3.67
2018-09-11T04:29:45.778Z,3.80
2018-09-11T04:31:49.594Z,3.33
2018-09-11T04:33:52.685Z,3.40
2018-09-11T04:35:55.614Z,3.30
2018-09-11T04:37:58.555Z,4.47
2018-09-11T04:40:01.650Z,3.60
2018-09-11T04:42:04.587Z,3.10
2018-09-11T04:44:08.321Z,3.87
2018-09-11T04:46:11.406Z,4.20
2018-09-11T04:48:14.337Z,3.87
2018-09-11T04:50:17.276Z,3.53
2018-09-11T04:52:20.320Z,3.67
2018-09-11T04:54:24.139Z,4.10
2018-09-11T04:56:27.079Z,4.00
2018-09-11T04:58:30.209Z,4.00
2018-09-11T05:00:33.942Z,4.50
2018-09-11T05:02:36.866Z,3.67
2018-09-11T05:04:40.815Z,3.50
2018-09-11T05:06:44.510Z,4.17
2018-09-11T05:08:48.198Z,4.80
2018-09-11T05:10:51.968Z,4.03
2018-09-11T05:12:54.900Z,4.57
2018-09-11T05:14:57.837Z,5.30
2018-09-11T05:17:00.960Z,5.27
2018-09-11T05:19:03.902Z,4.07
2018-09-11T05:21:06.843Z,5.87
2018-09-11T05:23:09.802Z,5.63
2018-09-11T05:25:12.730Z,5.30
2018-09-11T05:27:15.666Z,5.47
2018-09-11T05:29:18.713Z,5.63
2018-09-11T05:31:21.654Z,4.83
2018-09-11T05:33:24.578Z,4.47
2018-09-11T05:35:27.528Z,5.17
2018-09-11T05:37:30.448Z,4.90
2018-09-11T05:39:33.581Z,5.73
2018-09-11T05:41:36.746Z,4.70
2018-09-11T05:43:40.546Z,4.87
2018-09-11T05:45:44.358Z,4.40
2018-09-11T05:47:47.327Z,4.30
2018-09-11T05:49:51.033Z,4.20
2018-09-11T05:51:54.743Z,3.80
2018-09-11T05:53:58.997Z,3.90
2018-09-11T05:56:02.705Z,3.80
2018-09-11T05:58:05.730Z,3.43
2018-09-11T06:00:09.550Z,4.03
2018-09-11T06:02:12.482Z,4.33
2018-09-11T06:04:15.425Z,3.03
2018-09-11T06:06:18.538Z,4.00
2018-09-11T06:08:21.475Z,3.33
2018-09-11T06:10:24.461Z,4.37
2018-09-11T06:12:27.419Z,4.13
2018-09-11T06:14:31.133Z,4.43
2018-09-11T06:16:34.825Z,3.10
2018-09-11T06:18:37.859Z,3.90
2018-09-11T06:20:40.890Z,3.67
2018-09-11T06:22:44.597Z,4.47
2018-09-11T06:24:48.346Z,4.17
2018-09-11T06:26:51.296Z,3.93
2018-09-11T06:28:54.216Z,4.93
2018-09-11T06:30:57.173Z,4.50
2018-09-11T06:33:00.106Z,4.60
2018-09-11T06:35:03.801Z,4.10
2018-09-11T06:37:07.650Z,4.77
2018-09-11T06:39:13.173Z,4.63
2018-09-11T06:41:16.955Z,4.63
2018-09-11T06:43:19.988Z,5.03
2018-09-11T06:45:22.907Z,4.03
2018-09-11T06:47:26.622Z,4.80
2018-09-11T06:49:30.366Z,4.60
2018-09-11T06:51:33.301Z,4.90
2018-09-11T06:53:37.025Z,4.33
2018-09-11T06:55:40.108Z,4.03
2018-09-11T06:57:43.833Z,3.50
2018-09-11T06:59:46.893Z,4.93
2018-09-11T07:01:50.720Z,3.58
2018-09-11T07:03:53.638Z,4.10
2018-09-11T07:05:56.562Z,4.80
2018-09-11T07:08:00.464Z,3.90
2018-09-11T07:10:04.164Z,5.37
2018-09-11T07:12:07.971Z,4.27
2018-09-11T07:14:10.918Z,4.67
2018-09-11T07:16:13.852Z,5.10
2018-09-11T07:18:16.786Z,4.93
2018-09-11T07:20:20.056Z,4.73
2018-09-11T07:22:22.692Z,5.03
2018-09-11T07:24:25.646Z,4.37
2018-09-11T07:26:29.389Z,5.07
2018-09-11T07:28:32.314Z,3.80
2018-09-11T07:30:35.326Z,3.60
2018-09-11T07:32:39.026Z,3.80
2018-09-11T07:34:42.828Z,4.70
2018-09-11T07:36:46.521Z,4.57
2018-09-11T07:38:50.330Z,4.10
2018-09-11T07:40:54.221Z,4.47
2018-09-11T07:42:57.147Z,4.50
2018-09-11T07:45:00.123Z,4.20
2018-09-11T07:47:03.055Z,4.53
2018-09-11T07:49:06.064Z,3.50
2018-09-11T07:51:09.787Z,4.30
2018-09-11T07:53:12.714Z,4.60
2018-09-11T07:55:15.732Z,3.90
2018-09-11T07:57:19.588Z,3.10
2018-09-11T07:59:22.532Z,3.23
2018-09-11T08:01:25.462Z,3.30
2018-09-11T08:03:28.436Z,3.40
2018-09-11T08:05:31.469Z,3.20
2018-09-11T08:07:35.183Z,3.50
2018-09-11T08:09:38.217Z,3.70
2018-09-11T08:11:41.095Z,3.00
2018-09-11T08:13:44.114Z,3.67
2018-09-11T08:15:47.930Z,4.17
2018-09-11T08:17:51.059Z,2.83
2018-09-11T08:19:54.033Z,2.63
2018-09-11T08:21:56.977Z,2.97
2018-09-11T08:23:59.922Z,2.90
2018-09-11T08:26:04.346Z,2.90
2018-09-11T08:28:08.170Z,2.40
2018-09-11T08:30:11.849Z,2.67
2018-09-11T08:32:14.870Z,3.70
2018-09-11T08:34:17.814Z,2.70
2018-09-11T08:36:20.734Z,3.33
2018-09-11T08:38:23.658Z,3.13
2018-09-11T08:40:26.719Z,3.43
2018-09-11T08:42:29.670Z,3.53
2018-09-11T08:44:33.354Z,3.13
2018-09-11T08:46:37.141Z,3.50
2018-09-11T08:48:40.026Z,3.60
2018-09-11T08:50:42.947Z,3.47
2018-09-11T08:52:45.953Z,3.20
2018-09-11T08:54:48.849Z,3.77
2018-09-11T08:56:51.879Z,4.00
2018-09-11T08:58:56.337Z,3.80
2018-09-11T09:00:59.248Z,3.60
2018-09-11T09:03:02.230Z,2.90
2018-09-11T09:05:05.186Z,4.10
2018-09-11T09:07:08.123Z,3.20
2018-09-11T09:09:11.927Z,3.00
2018-09-11T09:11:15.734Z,2.60
2018-09-11T09:13:19.439Z,3.83
2018-09-11T09:15:22.378Z,3.10
2018-09-11T09:17:25.445Z,2.83
2018-09-11T09:19:28.370Z,3.43
2018-09-11T09:21:32.058Z,3.30
2018-09-11T09:23:35.038Z,3.33
2018-09-11T09:25:37.970Z,2.80
2018-09-11T09:27:41.133Z,2.90
2018-09-11T09:29:44.163Z,2.77
2018-09-11T09:31:47.062Z,1.80
2018-09-11T09:33:49.995Z,2.33
2018-09-11T09:35:53.030Z,2.37
2018-09-11T09:37:55.959Z,2.27
2018-09-11T09:39:58.878Z,2.20
2018-09-11T09:42:01.929Z,2.90
2018-09-11T09:44:04.885Z,2.20
2018-09-11T09:46:07.802Z,1.40
2018-09-11T09:48:10.863Z,2.50
2018-09-11T09:50:14.659Z,2.00
2018-09-11T09:52:17.665Z,1.77
2018-09-11T09:54:20.730Z,2.40
2018-09-11T09:56:23.663Z,2.20
2018-09-11T09:58:26.587Z,2.13
2018-09-11T10:00:29.595Z,2.97
2018-09-11T10:02:32.556Z,2.17
2018-09-11T10:04:36.237Z,2.13
2018-09-11T10:06:39.215Z,1.90
2018-09-11T10:08:42.135Z,2.20
2018-09-11T10:10:45.056Z,1.80
2018-09-11T10:12:48.015Z,1.87
2018-09-11T10:14:50.954Z,2.10
2018-09-11T10:16:54.645Z,2.57
2018-09-11T10:18:57.599Z,2.53
2018-09-11T10:21:00.522Z,1.87
2018-09-11T10:23:04.215Z,2.20
2018-09-11T10:25:08.034Z,2.10
2018-09-11T10:27:11.723Z,2.50
2018-09-11T10:29:14.650Z,2.20
2018-09-11T10:31:17.594Z,1.73
2018-09-11T10:33:21.386Z,1.90
2018-09-11T10:35:24.306Z,1.93
2018-09-11T10:37:27.299Z,2.50
2018-09-11T10:39:30.238Z,2.30
2018-09-11T10:41:33.146Z,1.87
2018-09-11T10:43:36.085Z,2.47
2018-09-11T10:45:39.035Z,2.50
2018-09-11T10:47:41.982Z,1.80
2018-09-11T10:49:45.710Z,2.10
2018-09-11T10:51:48.700Z,2.20
2018-09-11T10:53:51.603Z,2.23
2018-09-11T10:55:54.842Z,2.33
2018-09-11T10:57:57.767Z,1.90
2018-09-11T11:00:00.702Z,2.03
2018-09-11T11:02:04.435Z,2.17
2018-09-11T11:04:07.376Z,1.77
2018-09-11T11:06:10.326Z,1.80
2018-09-11T11:08:13.294Z,1.70
2018-09-11T11:10:16.266Z,1.60
2018-09-11T11:12:19.183Z,2.20
2018-09-11T11:14:22.290Z,2.90
2018-09-11T11:16:26.092Z,2.10
2018-09-11T11:18:29.768Z,2.00
2018-09-11T11:20:32.718Z,2.70
2018-09-11T11:22:35.760Z,1.90
2018-09-11T11:24:39.442Z,2.17
2018-09-11T11:26:43.264Z,1.90
2018-09-11T11:28:46.943Z,1.50
2018-09-11T11:30:50.665Z,1.90
2018-09-11T11:32:54.380Z,2.47
2018-09-11T11:34:57.316Z,1.67
2018-09-11T11:37:00.427Z,1.97
2018-09-11T11:39:04.062Z,1.87
2018-09-11T11:41:07.003Z,1.63
2018-09-11T11:43:10.815Z,1.87
2018-09-11T11:45:14.526Z,1.77
2018-09-11T11:47:17.451Z,1.90
2018-09-11T11:49:20.375Z,1.53
2018-09-11T11:51:24.177Z,1.70
2018-09-11T11:53:27.873Z,2.00
2018-09-11T11:55:31.049Z,2.10
2018-09-11T11:57:33.947Z,1.67
2018-09-11T11:59:37.631Z,1.50
2018-09-11T12:01:41.326Z,1.80
2018-09-11T12:03:44.454Z,1.70
2018-09-11T12:05:47.377Z,1.67
2018-09-11T12:07:51.861Z,1.70
2018-09-11T12:09:55.019Z,1.70
2018-09-11T12:11:58.704Z,1.87
2018-09-11T12:14:02.522Z,1.53
2018-09-11T12:16:06.277Z,1.30
2018-09-11T12:18:09.224Z,1.90
2018-09-11T12:20:12.146Z,1.80
2018-09-11T12:22:15.173Z,1.53
2018-09-11T12:24:18.975Z,2.00
2018-09-11T12:26:22.700Z,1.70
2018-09-11T12:28:25.663Z,1.83
2018-09-11T12:30:29.385Z,2.23
2018-09-11T12:32:32.305Z,1.43
2018-09-11T12:34:35.355Z,1.87
2018-09-11T12:36:39.133Z,2.37
2018-09-11T12:38:42.062Z,1.93
2018-09-11T12:40:45.034Z,1.57
2018-09-11T12:42:48.072Z,1.60
2018-09-11T12:44:51.762Z,2.03
2018-09-11T12:46:55.050Z,1.70
2018-09-11T12:48:57.766Z,1.77
2018-09-11T12:51:00.674Z,1.73
2018-09-11T12:53:03.622Z,1.93
2018-09-11T12:55:06.579Z,1.90
2018-09-11T12:57:10.266Z,2.17
2018-09-11T12:59:14.003Z,1.57
2018-09-11T13:01:16.946Z,1.70
2018-09-11T13:03:20.645Z,2.07
2018-09-11T13:05:24.572Z,1.90
2018-09-11T13:07:28.274Z,1.57
2018-09-11T13:09:32.017Z,1.87
2018-09-11T13:11:34.937Z,1.13
2018-09-11T13:13:38.620Z,2.13
2018-09-11T13:15:41.552Z,2.07
2018-09-11T13:17:45.370Z,2.30
2018-09-11T13:19:48.306Z,1.90
2018-09-11T13:21:51.222Z,1.87
2018-09-11T13:23:54.389Z,1.80
2018-09-11T13:25:58.065Z,2.13
2018-09-11T13:28:01.010Z,1.60
2018-09-11T13:30:03.974Z,1.73
2018-09-11T13:32:06.915Z,1.50
2018-09-11T13:34:09.848Z,2.13
2018-09-11T13:36:12.898Z,1.97
2018-09-11T13:38:16.593Z,2.00
2018-09-11T13:40:19.506Z,1.70
2018-09-11T13:42:22.465Z,1.70
2018-09-11T13:44:26.172Z,2.27
2018-09-11T13:46:29.129Z,1.70
2018-09-11T13:48:32.086Z,1.93
2018-09-11T13:50:35.018Z,1.77
2018-09-11T13:52:37.962Z,1.90
2018-09-11T13:54:41.000Z,1.90
2018-09-11T13:56:43.924Z,2.20
2018-09-11T13:58:46.958Z,1.90
2018-09-11T14:00:50.693Z,1.70
2018-09-11T14:02:53.611Z,1.93
2018-09-11T14:04:58.146Z,1.80
2018-09-11T14:07:01.878Z,3.00
2018-09-11T14:09:04.861Z,1.93
2018-09-11T14:11:07.778Z,2.27
2018-09-11T14:13:10.745Z,2.00
2018-09-11T14:15:13.678Z,1.60
2018-09-11T14:17:16.610Z,1.60
2018-09-11T14:19:19.570Z,2.07
2018-09-11T14:21:22.516Z,1.87
2018-09-11T14:23:26.209Z,1.93
2018-09-11T14:25:30.038Z,1.70
2018-09-11T14:27:32.965Z,2.13
2018-09-11T14:29:35.940Z,1.83
2018-09-11T14:31:38.899Z,1.93
2018-09-11T14:33:41.810Z,2.03
2018-09-11T14:35:44.758Z,2.40
2018-09-11T14:37:47.823Z,1.83
2018-09-11T14:39:52.338Z,1.87
2018-09-11T14:41:56.022Z,2.03
2018-09-11T14:43:59.943Z,2.73
2018-09-11T14:46:03.636Z,2.30
2018-09-11T14:48:07.344Z,2.27
2018-09-11T14:50:11.067Z,2.37
2018-09-11T14:52:13.992Z,2.20
2018-09-11T14:54:16.919Z,2.00
2018-09-11T14:56:19.874Z,1.57
2018-09-11T14:58:23.558Z,1.83
2018-09-11T15:00:26.567Z,1.80
2018-09-11T15:02:30.399Z,1.80
2018-09-11T15:04:33.328Z,2.13
2018-09-11T15:06:36.254Z,2.13
2018-09-11T15:08:39.387Z,2.20
2018-09-11T15:10:42.328Z,2.00
2018-09-11T15:12:45.261Z,1.93
2018-09-11T15:14:48.217Z,2.37
2018-09-11T15:16:51.146Z,1.80
2018-09-11T15:18:54.825Z,2.40
2018-09-11T15:20:57.970Z,2.30
2018-09-11T15:23:00.894Z,2.10
2018-09-11T15:25:03.811Z,2.73
2018-09-11T15:27:06.892Z,2.03
2018-09-11T15:29:09.823Z,2.13
2018-09-11T15:31:12.734Z,2.00
2018-09-11T15:33:15.702Z,2.17
2018-09-11T15:35:18.623Z,1.60
2018-09-11T15:37:22.306Z,2.43
2018-09-11T15:39:26.118Z,2.07
2018-09-11T15:41:29.803Z,2.03
2018-09-11T15:43:33.498Z,3.00
2018-09-11T15:45:36.450Z,2.50
2018-09-11T15:47:39.369Z,2.20
2018-09-11T15:49:43.058Z,2.30
2018-09-11T15:51:46.016Z,3.53
2018-09-11T15:53:49.047Z,2.40
2018-09-11T15:55:52.757Z,2.30
2018-09-11T15:57:58.386Z,2.43
2018-09-11T16:00:02.106Z,2.53
2018-09-11T16:02:05.026Z,2.10
2018-09-11T16:04:08.013Z,2.50
2018-09-11T16:06:10.942Z,2.10
2018-09-11T16:08:14.629Z,2.40
2018-09-11T16:10:18.389Z,2.17
2018-09-11T16:12:21.306Z,2.30
2018-09-11T16:14:24.288Z,2.40
2018-09-11T16:16:27.246Z,2.07
2018-09-11T16:18:30.272Z,2.27
2018-09-11T16:20:34.039Z,1.97
2018-09-11T16:22:37.138Z,2.33
2018-09-11T16:24:40.553Z,2.80
2018-09-11T16:26:43.523Z,2.80
2018-09-11T16:28:46.471Z,2.53
2018-09-11T16:30:49.402Z,2.43
2018-09-11T16:32:53.207Z,2.10
2018-09-11T16:34:56.930Z,2.10
2018-09-11T16:36:59.874Z,2.30
2018-09-11T16:39:03.559Z,2.57
2018-09-11T16:41:06.597Z,2.13
2018-09-11T16:43:09.517Z,2.03
2018-09-11T16:45:12.442Z,2.63
2018-09-11T16:47:15.517Z,2.20
2018-09-11T16:49:19.194Z,2.47
2018-09-11T16:51:22.199Z,2.40
2018-09-11T16:53:25.922Z,3.13
2018-09-11T16:55:28.846Z,2.40
2018-09-11T16:57:31.777Z,2.63
2018-09-11T16:59:34.722Z,2.10
2018-09-11T17:01:37.640Z,2.00
2018-09-11T17:03:42.198Z,2.10
2018-09-11T17:05:45.174Z,3.10
2018-09-11T17:07:48.220Z,2.30
2018-09-11T17:09:51.904Z,2.00
2018-09-11T17:11:55.650Z,2.27
2018-09-11T17:13:58.576Z,2.30
2018-09-11T17:16:01.517Z,2.50
2018-09-11T17:18:04.562Z,2.33
2018-09-11T17:20:08.287Z,2.03
2018-09-11T17:22:11.247Z,2.43
2018-09-11T17:24:14.962Z,2.70
2018-09-11T17:26:17.898Z,2.47
2018-09-11T17:28:20.829Z,2.17
2018-09-11T17:30:23.826Z,2.30
2018-09-11T17:32:26.742Z,2.40
2018-09-11T17:34:29.665Z,2.10
2018-09-11T17:36:32.624Z,2.77
2018-09-11T17:38:36.322Z,2.87
2018-09-11T17:40:40.018Z,2.67
2018-09-11T17:42:43.004Z,2.37
2018-09-11T17:44:46.718Z,2.30
2018-09-11T17:46:50.420Z,2.20
2018-09-11T17:48:54.224Z,2.90
2018-09-11T17:50:57.084Z,2.40
2018-09-11T17:53:00.124Z,2.43
2018-09-11T17:55:03.085Z,2.67
2018-09-11T17:57:05.996Z,2.53
2018-09-11T17:59:08.919Z,2.50
2018-09-11T18:01:11.878Z,2.27
2018-09-11T18:03:14.903Z,2.43
2018-09-11T18:05:17.834Z,2.70
2018-09-11T18:07:20.822Z,2.20
2018-09-11T18:09:23.739Z,2.40
2018-09-11T18:11:27.435Z,2.40
2018-09-11T18:13:31.160Z,2.63
2018-09-11T18:15:34.093Z,1.97
2018-09-11T18:17:37.056Z,2.37
2018-09-11T18:19:40.022Z,2.80
2018-09-11T18:21:42.942Z,2.23
2018-09-11T18:23:45.966Z,2.30
2018-09-11T18:25:49.705Z,2.30
2018-09-11T18:27:52.617Z,2.10
2018-09-11T18:29:55.537Z,2.40
2018-09-11T18:31:58.610Z,2.53
2018-09-11T18:34:02.308Z,2.83
2018-09-11T18:36:05.986Z,2.53
2018-09-11T18:38:09.710Z,3.07
2018-09-11T18:40:13.409Z,2.67
2018-09-11T18:42:17.108Z,2.30
2018-09-11T18:44:20.857Z,2.70
2018-09-11T18:46:23.858Z,2.13
2018-09-11T18:48:26.877Z,2.53
2018-09-11T18:50:30.594Z,3.33
2018-09-11T18:52:33.525Z,2.80
2018-09-11T18:54:36.447Z,3.10
2018-09-11T18:56:39.525Z,2.50
2018-09-11T18:58:43.225Z,2.40
2018-09-11T19:00:46.966Z,2.53
2018-09-11T19:02:49.925Z,2.90
2018-09-11T19:04:52.846Z,3.10
2018-09-11T19:06:55.763Z,2.80
2018-09-11T19:08:59.494Z,3.33
2018-09-11T19:11:02.482Z,2.97
2018-09-11T19:13:06.143Z,3.07
2018-09-11T19:15:09.957Z,2.90
2018-09-11T19:17:13.701Z,3.20
2018-09-11T19:19:16.902Z,3.10
2018-09-11T19:21:19.870Z,3.70
2018-09-11T19:23:22.794Z,3.87
2018-09-11T19:25:25.820Z,3.57
2018-09-11T19:27:28.763Z,3.00
2018-09-11T19:29:31.700Z,3.50
2018-09-11T19:31:34.619Z,2.23
2018-09-11T19:33:37.674Z,2.87
2018-09-11T19:35:40.590Z,2.67
2018-09-11T19:37:43.532Z,3.10
2018-09-11T19:39:46.498Z,3.60
2018-09-11T19:41:49.455Z,3.47
2018-09-11T19:43:53.156Z,2.80
2018-09-11T19:45:56.959Z,2.67
2018-09-11T19:47:59.898Z,2.87
2018-09-11T19:50:02.913Z,2.70
2018-09-11T19:52:05.834Z,2.17
2018-09-11T19:54:08.771Z,2.30
2018-09-11T19:56:11.723Z,3.00
2018-09-11T19:58:14.684Z,2.87
2018-09-11T20:00:17.590Z,2.97
2018-09-11T20:02:20.546Z,2.90
2018-09-11T20:04:24.273Z,3.40
2018-09-11T20:06:27.266Z,3.47
2018-09-11T20:08:30.227Z,3.87
2018-09-11T20:10:33.160Z,2.60
2018-09-11T20:12:36.963Z,2.70
2018-09-11T20:14:41.531Z,3.10
2018-09-11T20:16:44.452Z,3.10
2018-09-11T20:18:47.387Z,2.93
2018-09-11T20:20:50.347Z,3.50
2018-09-11T20:22:53.279Z,2.57
2018-09-11T20:24:56.246Z,2.43
2018-09-11T20:26:59.279Z,2.73
2018-09-11T20:29:02.974Z,2.60
2018-09-11T20:31:06.710Z,2.87
2018-09-11T20:33:09.630Z,2.93
2018-09-11T20:35:12.647Z,2.20
2018-09-11T20:37:16.362Z,2.87
2018-09-11T20:39:19.282Z,2.97
2018-09-11T20:41:22.214Z,3.20
2018-09-11T20:43:25.967Z,3.27
2018-09-11T20:45:28.995Z,2.77
2018-09-11T20:47:32.768Z,2.93
2018-09-11T20:49:35.726Z,5.43
2018-09-11T20:51:38.761Z,5.63
2018-09-11T20:53:42.462Z,5.57
2018-09-11T20:55:46.219Z,5.10
2018-09-11T20:57:49.145Z,5.27
2018-09-11T20:59:52.893Z,5.20
2018-09-11T21:01:55.818Z,4.90
2018-09-11T21:03:59.529Z,5.27
2018-09-11T21:06:03.346Z,6.00
2018-09-11T21:08:06.265Z,4.70
2018-09-11T21:10:09.296Z,4.30
2018-09-11T21:12:13.098Z,4.53
2018-09-11T21:14:16.794Z,3.10
2018-09-11T21:16:20.484Z,3.37
2018-09-11T21:18:24.231Z,3.50
2018-09-11T21:20:27.157Z,2.63
2018-09-11T21:22:30.085Z,3.10
2018-09-11T21:24:33.035Z,2.37
2018-09-11T21:26:36.727Z,2.90
2018-09-11T21:28:39.714Z,3.00
2018-09-11T21:30:42.658Z,2.90
2018-09-11T21:32:45.601Z,2.83
2018-09-11T21:34:48.693Z,2.80
2018-09-11T21:36:51.622Z,2.77
2018-09-11T21:38:54.643Z,2.60
2018-09-11T21:40:58.445Z,2.90
2018-09-11T21:43:02.130Z,2.70
2018-09-11T21:45:05.843Z,3.00
2018-09-11T21:47:09.562Z,3.30
2018-09-11T21:49:12.479Z,2.30
2018-09-11T21:51:15.408Z,3.33
2018-09-11T21:53:19.330Z,2.40
2018-09-11T21:55:22.258Z,2.47
2018-09-11T21:57:25.280Z,3.07
2018-09-11T21:59:29.026Z,3.20
2018-09-11T22:01:32.064Z,1.93
2018-09-11T22:03:35.766Z,3.10
2018-09-11T22:05:39.515Z,2.50
2018-09-11T22:07:43.982Z,2.60
2018-09-11T22:09:47.785Z,2.40
2018-09-11T22:11:51.470Z,2.70
2018-09-11T22:13:55.184Z,2.33
2018-09-11T22:15:58.913Z,3.13
2018-09-11T22:18:01.838Z,2.63
2018-09-11T22:20:04.764Z,2.90
2018-09-11T22:22:07.833Z,2.97
2018-09-11T22:24:11.509Z,2.53
2018-09-11T22:26:15.227Z,2.80
2018-09-11T22:28:18.955Z,3.20
2018-09-11T22:30:21.881Z,2.90
2018-09-11T22:32:24.814Z,2.70
2018-09-11T22:34:27.778Z,2.80
2018-09-11T22:36:31.587Z,2.40
2018-09-11T22:38:35.261Z,3.00
2018-09-11T22:40:38.206Z,3.10
2018-09-11T22:42:41.150Z,2.93
2018-09-11T22:44:44.191Z,2.80
2018-09-11T22:46:47.124Z,3.03
2018-09-11T22:48:50.062Z,3.10
2018-09-11T22:50:53.058Z,2.70
2018-09-11T22:52:56.751Z,2.70
2018-09-11T22:54:59.670Z,2.80
2018-09-11T22:57:02.622Z,3.50
2018-09-11T22:59:06.309Z,2.70
2018-09-11T23:01:09.324Z,3.17
2018-09-11T23:03:13.127Z,2.50
2018-09-11T23:05:16.929Z,3.23
2018-09-11T23:07:20.637Z,2.70
2018-09-11T23:09:24.329Z,2.70
2018-09-11T23:11:28.005Z,2.40
2018-09-11T23:13:31.217Z,2.73
2018-09-11T23:15:34.889Z,2.73
2018-09-11T23:17:37.813Z,3.20
2018-09-11T23:19:40.776Z,3.13
2018-09-11T23:21:44.466Z,3.03
2018-09-11T23:23:48.170Z,2.70
2018-09-11T23:25:51.219Z,2.60
2018-09-11T23:27:54.146Z,2.67
2018-09-11T23:29:57.947Z,2.80
2018-09-11T23:32:01.663Z,3.10
2018-09-11T23:34:04.583Z,3.20
2018-09-11T23:36:07.495Z,2.80
2018-09-11T23:38:10.541Z,3.20
2018-09-11T23:40:13.580Z,2.90
2018-09-11T23:42:17.258Z,2.70
2018-09-11T23:44:21.728Z,3.17
2018-09-11T23:46:24.643Z,3.60
2018-09-11T23:48:27.619Z,3.40
2018-09-11T23:50:30.584Z,3.40
2018-09-11T23:52:33.503Z,3.40
2018-09-11T23:54:36.466Z,3.67
2018-09-11T23:56:39.387Z,3.17
2018-09-11T23:58:43.070Z,2.90
